sensor_id;sensor_type;location;lat;lon;timestamp;temperature;humidity
70271;SHT31;57680;54.292;18.598;2023-01-08T00:01:07;2.85;99.99
70271;SHT31;57680;54.292;18.598;2023-01-08T00:03:34;2.87;99.99
70271;SHT31;57680;54.292;18.598;2023-01-08T00:06:04;2.88;99.99
70271;SHT31;57680;54.292;18.598;2023-01-08T00:08:30;2.92;99.99
70271;SHT31;57680;54.292;18.598;2023-01-08T00:10:56;2.95;99.99
70271;SHT31;57680;54.292;18.598;2023-01-08T00:13:22;2.95;99.99
70271;SHT31;57680;54.292;18.598;2023-01-08T00:15:47;2.96;99.99
70271;SHT31;57680;54.292;18.598;2023-01-08T00:18:13;3.01;99.99
70271;SHT31;57680;54.292;18.598;2023-01-08T00:20:42;3.03;99.99
70271;SHT31;57680;54.292;18.598;2023-01-08T00:23:26;3.03;99.99
70271;SHT31;57680;54.292;18.598;2023-01-08T00:25:52;3.08;99.99
70271;SHT31;57680;54.292;18.598;2023-01-08T00:28:17;3.08;99.99
70271;SHT31;57680;54.292;18.598;2023-01-08T00:30:45;3.09;99.99
70271;SHT31;57680;54.292;18.598;2023-01-08T00:33:11;3.06;99.99
70271;SHT31;57680;54.292;18.598;2023-01-08T00:35:37;3.09;99.99
70271;SHT31;57680;54.292;18.598;2023-01-08T00:38:03;3.11;99.99
70271;SHT31;57680;54.292;18.598;2023-01-08T00:40:29;3.09;99.99
70271;SHT31;57680;54.292;18.598;2023-01-08T00:42:55;3.08;99.99
70271;SHT31;57680;54.292;18.598;2023-01-08T00:45:20;3.08;99.99
70271;SHT31;57680;54.292;18.598;2023-01-08T00:47:46;3.08;99.99
70271;SHT31;57680;54.292;18.598;2023-01-08T00:50:11;3.12;99.99
70271;SHT31;57680;54.292;18.598;2023-01-08T00:52:37;3.12;99.99
70271;SHT31;57680;54.292;18.598;2023-01-08T00:55:03;3.13;99.99
70271;SHT31;57680;54.292;18.598;2023-01-08T00:57:36;3.16;99.99
70271;SHT31;57680;54.292;18.598;2023-01-08T01:00:04;3.20;99.99
70271;SHT31;57680;54.292;18.598;2023-01-08T01:02:30;3.22;99.99
70271;SHT31;57680;54.292;18.598;2023-01-08T01:04:56;3.24;99.99
70271;SHT31;57680;54.292;18.598;2023-01-08T01:07:21;3.33;99.99
70271;SHT31;57680;54.292;18.598;2023-01-08T01:09:47;3.36;99.99
70271;SHT31;57680;54.292;18.598;2023-01-08T01:12:12;3.42;99.99
70271;SHT31;57680;54.292;18.598;2023-01-08T01:14:38;3.46;99.99
70271;SHT31;57680;54.292;18.598;2023-01-08T01:17:03;3.50;99.99
70271;SHT31;57680;54.292;18.598;2023-01-08T01:19:29;3.56;99.99
70271;SHT31;57680;54.292;18.598;2023-01-08T01:21:54;3.57;99.99
70271;SHT31;57680;54.292;18.598;2023-01-08T01:24:20;3.63;99.99
70271;SHT31;57680;54.292;18.598;2023-01-08T01:26:52;3.69;99.99
70271;SHT31;57680;54.292;18.598;2023-01-08T01:29:17;3.71;99.99
70271;SHT31;57680;54.292;18.598;2023-01-08T01:31:43;3.74;99.99
70271;SHT31;57680;54.292;18.598;2023-01-08T01:34:09;3.74;99.99
70271;SHT31;57680;54.292;18.598;2023-01-08T01:36:35;3.81;99.99
70271;SHT31;57680;54.292;18.598;2023-01-08T01:39:02;3.82;99.99
70271;SHT31;57680;54.292;18.598;2023-01-08T01:44:36;3.91;99.99
70271;SHT31;57680;54.292;18.598;2023-01-08T01:52:35;4.01;99.99
70271;SHT31;57680;54.292;18.598;2023-01-08T01:55:02;4.05;99.99
70271;SHT31;57680;54.292;18.598;2023-01-08T01:57:29;4.08;99.99
70271;SHT31;57680;54.292;18.598;2023-01-08T01:59:56;4.06;99.99
70271;SHT31;57680;54.292;18.598;2023-01-08T02:02:22;4.11;99.99
70271;SHT31;57680;54.292;18.598;2023-01-08T02:04:49;4.15;99.99
70271;SHT31;57680;54.292;18.598;2023-01-08T02:10:21;4.16;99.99
70271;SHT31;57680;54.292;18.598;2023-01-08T02:12:57;4.18;99.99
70271;SHT31;57680;54.292;18.598;2023-01-08T02:15:40;4.19;99.99
70271;SHT31;57680;54.292;18.598;2023-01-08T02:21:02;4.19;99.99
70271;SHT31;57680;54.292;18.598;2023-01-08T02:23:33;4.21;99.99
70271;SHT31;57680;54.292;18.598;2023-01-08T02:28:39;4.22;99.99
70271;SHT31;57680;54.292;18.598;2023-01-08T02:31:06;4.26;99.99
70271;SHT31;57680;54.292;18.598;2023-01-08T02:33:32;4.23;99.99
70271;SHT31;57680;54.292;18.598;2023-01-08T02:39:37;4.23;99.99
70271;SHT31;57680;54.292;18.598;2023-01-08T02:46:59;4.28;99.99
70271;SHT31;57680;54.292;18.598;2023-01-08T02:49:29;4.28;99.99
70271;SHT31;57680;54.292;18.598;2023-01-08T02:51:56;4.29;99.99
70271;SHT31;57680;54.292;18.598;2023-01-08T02:54:25;4.26;99.99
70271;SHT31;57680;54.292;18.598;2023-01-08T02:57:01;4.26;99.99
70271;SHT31;57680;54.292;18.598;2023-01-08T02:59:30;4.28;99.99
70271;SHT31;57680;54.292;18.598;2023-01-08T03:01:56;4.28;99.99
70271;SHT31;57680;54.292;18.598;2023-01-08T03:04:24;4.29;99.99
70271;SHT31;57680;54.292;18.598;2023-01-08T03:06:50;4.31;99.99
70271;SHT31;57680;54.292;18.598;2023-01-08T03:09:16;4.31;99.99
70271;SHT31;57680;54.292;18.598;2023-01-08T03:14:51;4.41;99.99
70271;SHT31;57680;54.292;18.598;2023-01-08T03:17:23;4.39;99.99
70271;SHT31;57680;54.292;18.598;2023-01-08T03:19:53;4.42;99.99
70271;SHT31;57680;54.292;18.598;2023-01-08T03:22:20;4.42;99.99
70271;SHT31;57680;54.292;18.598;2023-01-08T03:24:50;4.46;99.99
70271;SHT31;57680;54.292;18.598;2023-01-08T03:27:20;4.48;99.99
70271;SHT31;57680;54.292;18.598;2023-01-08T03:29:48;4.48;99.99
70271;SHT31;57680;54.292;18.598;2023-01-08T03:32:16;4.56;99.99
70271;SHT31;57680;54.292;18.598;2023-01-08T03:34:45;4.53;99.99
70271;SHT31;57680;54.292;18.598;2023-01-08T03:37:13;4.54;99.99
70271;SHT31;57680;54.292;18.598;2023-01-08T03:39:45;4.52;99.99
70271;SHT31;57680;54.292;18.598;2023-01-08T03:42:13;4.50;99.99
70271;SHT31;57680;54.292;18.598;2023-01-08T03:44:39;4.52;99.99
70271;SHT31;57680;54.292;18.598;2023-01-08T03:47:07;4.53;99.99
70271;SHT31;57680;54.292;18.598;2023-01-08T03:49:34;4.53;99.99
70271;SHT31;57680;54.292;18.598;2023-01-08T03:52:00;4.53;99.99
70271;SHT31;57680;54.292;18.598;2023-01-08T03:54:30;4.57;99.99
70271;SHT31;57680;54.292;18.598;2023-01-08T03:56:56;4.59;99.99
70271;SHT31;57680;54.292;18.598;2023-01-08T03:59:22;4.64;99.99
70271;SHT31;57680;54.292;18.598;2023-01-08T04:04:35;4.64;99.99
70271;SHT31;57680;54.292;18.598;2023-01-08T04:07:01;4.62;99.99
70271;SHT31;57680;54.292;18.598;2023-01-08T04:09:26;4.64;99.99
70271;SHT31;57680;54.292;18.598;2023-01-08T04:11:52;4.66;99.99
70271;SHT31;57680;54.292;18.598;2023-01-08T04:14:17;4.63;99.99
70271;SHT31;57680;54.292;18.598;2023-01-08T04:16:43;4.66;99.99
70271;SHT31;57680;54.292;18.598;2023-01-08T04:19:12;4.64;99.99
70271;SHT31;57680;54.292;18.598;2023-01-08T04:21:39;4.69;99.99
70271;SHT31;57680;54.292;18.598;2023-01-08T04:24:04;4.72;99.99
70271;SHT31;57680;54.292;18.598;2023-01-08T04:26:30;4.72;99.99
70271;SHT31;57680;54.292;18.598;2023-01-08T04:28:56;4.73;99.99
70271;SHT31;57680;54.292;18.598;2023-01-08T04:31:21;4.70;99.96
70271;SHT31;57680;54.292;18.598;2023-01-08T04:33:47;4.72;99.99
70271;SHT31;57680;54.292;18.598;2023-01-08T04:36:13;4.72;99.97
70271;SHT31;57680;54.292;18.598;2023-01-08T04:38:39;4.72;99.99
70271;SHT31;57680;54.292;18.598;2023-01-08T04:41:05;4.70;99.85
70271;SHT31;57680;54.292;18.598;2023-01-08T04:43:31;4.69;99.84
70271;SHT31;57680;54.292;18.598;2023-01-08T04:46:01;4.66;99.81
70271;SHT31;57680;54.292;18.598;2023-01-08T04:48:28;4.63;99.68
70271;SHT31;57680;54.292;18.598;2023-01-08T04:50:57;4.62;99.64
70271;SHT31;57680;54.292;18.598;2023-01-08T04:53:23;4.59;99.57
70271;SHT31;57680;54.292;18.598;2023-01-08T04:55:48;4.60;99.80
70271;SHT31;57680;54.292;18.598;2023-01-08T04:58:14;4.63;99.92
70271;SHT31;57680;54.292;18.598;2023-01-08T05:00:40;4.67;99.71
70271;SHT31;57680;54.292;18.598;2023-01-08T05:03:05;4.70;99.65
70271;SHT31;57680;54.292;18.598;2023-01-08T05:05:32;4.69;99.58
70271;SHT31;57680;54.292;18.598;2023-01-08T05:07:58;4.70;99.46
70271;SHT31;57680;54.292;18.598;2023-01-08T05:10:24;4.67;99.35
70271;SHT31;57680;54.292;18.598;2023-01-08T05:12:49;4.67;99.48
70271;SHT31;57680;54.292;18.598;2023-01-08T05:15:15;4.66;99.60
70271;SHT31;57680;54.292;18.598;2023-01-08T05:17:41;4.70;99.51
70271;SHT31;57680;54.292;18.598;2023-01-08T05:20:07;4.74;99.65
70271;SHT31;57680;54.292;18.598;2023-01-08T05:22:33;4.76;99.54
70271;SHT31;57680;54.292;18.598;2023-01-08T05:24:59;4.77;99.31
70271;SHT31;57680;54.292;18.598;2023-01-08T05:27:24;4.77;99.34
70271;SHT31;57680;54.292;18.598;2023-01-08T05:29:50;4.80;99.07
70271;SHT31;57680;54.292;18.598;2023-01-08T05:32:17;4.80;99.17
70271;SHT31;57680;54.292;18.598;2023-01-08T05:34:43;4.81;99.27
70271;SHT31;57680;54.292;18.598;2023-01-08T05:37:09;4.81;99.14
70271;SHT31;57680;54.292;18.598;2023-01-08T05:39:35;4.81;99.11
70271;SHT31;57680;54.292;18.598;2023-01-08T05:42:01;4.85;99.38
70271;SHT31;57680;54.292;18.598;2023-01-08T05:44:26;4.87;99.22
70271;SHT31;57680;54.292;18.598;2023-01-08T05:46:53;4.88;99.06
70271;SHT31;57680;54.292;18.598;2023-01-08T05:49:18;4.90;98.93
70271;SHT31;57680;54.292;18.598;2023-01-08T05:51:46;4.93;99.05
70271;SHT31;57680;54.292;18.598;2023-01-08T05:54:12;4.91;98.80
70271;SHT31;57680;54.292;18.598;2023-01-08T05:56:37;4.93;98.73
70271;SHT31;57680;54.292;18.598;2023-01-08T05:59:03;4.94;98.75
70271;SHT31;57680;54.292;18.598;2023-01-08T06:01:29;4.93;98.50
70271;SHT31;57680;54.292;18.598;2023-01-08T06:03:54;4.93;98.44
70271;SHT31;57680;54.292;18.598;2023-01-08T06:06:20;4.91;98.48
70271;SHT31;57680;54.292;18.598;2023-01-08T06:08:46;4.88;98.51
70271;SHT31;57680;54.292;18.598;2023-01-08T06:11:12;4.87;98.55
70271;SHT31;57680;54.292;18.598;2023-01-08T06:13:40;4.91;98.77
70271;SHT31;57680;54.292;18.598;2023-01-08T06:16:06;4.94;98.46
70271;SHT31;57680;54.292;18.598;2023-01-08T06:18:32;4.97;98.35
70271;SHT31;57680;54.292;18.598;2023-01-08T06:20:57;4.93;98.22
70271;SHT31;57680;54.292;18.598;2023-01-08T06:23:23;4.97;97.87
70271;SHT31;57680;54.292;18.598;2023-01-08T06:25:56;4.95;98.00
70271;SHT31;57680;54.292;18.598;2023-01-08T06:28:22;4.94;97.83
70271;SHT31;57680;54.292;18.598;2023-01-08T06:30:47;4.93;97.58
70271;SHT31;57680;54.292;18.598;2023-01-08T06:33:13;4.94;97.55
70271;SHT31;57680;54.292;18.598;2023-01-08T06:35:39;4.90;97.46
70271;SHT31;57680;54.292;18.598;2023-01-08T06:38:05;4.91;97.39
70271;SHT31;57680;54.292;18.598;2023-01-08T06:40:30;4.93;97.44
70271;SHT31;57680;54.292;18.598;2023-01-08T06:43:00;4.91;97.15
70271;SHT31;57680;54.292;18.598;2023-01-08T06:45:26;4.91;97.15
70271;SHT31;57680;54.292;18.598;2023-01-08T06:47:51;4.91;97.10
70271;SHT31;57680;54.292;18.598;2023-01-08T06:50:17;4.93;97.09
70271;SHT31;57680;54.292;18.598;2023-01-08T06:52:42;4.93;97.08
70271;SHT31;57680;54.292;18.598;2023-01-08T06:55:09;4.91;96.54
70271;SHT31;57680;54.292;18.598;2023-01-08T06:57:34;4.90;96.48
70271;SHT31;57680;54.292;18.598;2023-01-08T07:00:00;4.90;96.45
70271;SHT31;57680;54.292;18.598;2023-01-08T07:02:25;4.87;96.64
70271;SHT31;57680;54.292;18.598;2023-01-08T07:04:50;4.83;96.44
70271;SHT31;57680;54.292;18.598;2023-01-08T07:07:16;4.84;96.51
70271;SHT31;57680;54.292;18.598;2023-01-08T07:09:42;4.83;96.30
70271;SHT31;57680;54.292;18.598;2023-01-08T07:12:12;4.81;96.43
70271;SHT31;57680;54.292;18.598;2023-01-08T07:14:38;4.80;96.27
70271;SHT31;57680;54.292;18.598;2023-01-08T07:17:04;4.76;96.34
70271;SHT31;57680;54.292;18.598;2023-01-08T07:19:29;4.76;96.36
70271;SHT31;57680;54.292;18.598;2023-01-08T07:21:55;4.74;96.44
70271;SHT31;57680;54.292;18.598;2023-01-08T07:24:21;4.73;96.28
70271;SHT31;57680;54.292;18.598;2023-01-08T07:26:46;4.76;96.39
70271;SHT31;57680;54.292;18.598;2023-01-08T07:29:12;4.73;96.22
70271;SHT31;57680;54.292;18.598;2023-01-08T07:31:37;4.73;96.31
70271;SHT31;57680;54.292;18.598;2023-01-08T07:34:03;4.77;96.05
70271;SHT31;57680;54.292;18.598;2023-01-08T07:36:29;4.77;96.06
70271;SHT31;57680;54.292;18.598;2023-01-08T07:38:54;4.73;95.92
70271;SHT31;57680;54.292;18.598;2023-01-08T07:41:20;4.73;95.98
70271;SHT31;57680;54.292;18.598;2023-01-08T07:43:48;4.77;95.91
70271;SHT31;57680;54.292;18.598;2023-01-08T07:46:14;4.73;95.88
70271;SHT31;57680;54.292;18.598;2023-01-08T07:48:40;4.70;96.04
70271;SHT31;57680;54.292;18.598;2023-01-08T07:51:06;4.72;95.69
70271;SHT31;57680;54.292;18.598;2023-01-08T07:53:34;4.67;95.85
70271;SHT31;57680;54.292;18.598;2023-01-08T07:56:04;4.66;95.69
70271;SHT31;57680;54.292;18.598;2023-01-08T07:58:30;4.60;95.73
70271;SHT31;57680;54.292;18.598;2023-01-08T08:00:56;4.60;95.77
70271;SHT31;57680;54.292;18.598;2023-01-08T08:03:22;4.57;95.81
70271;SHT31;57680;54.292;18.598;2023-01-08T08:05:49;4.59;95.79
70271;SHT31;57680;54.292;18.598;2023-01-08T08:08:15;4.60;95.74
70271;SHT31;57680;54.292;18.598;2023-01-08T08:10:42;4.57;95.66
70271;SHT31;57680;54.292;18.598;2023-01-08T08:13:07;4.59;95.48
70271;SHT31;57680;54.292;18.598;2023-01-08T08:15:34;4.54;95.51
70271;SHT31;57680;54.292;18.598;2023-01-08T08:18:00;4.53;95.62
70271;SHT31;57680;54.292;18.598;2023-01-08T08:20:26;4.54;95.62
70271;SHT31;57680;54.292;18.598;2023-01-08T08:22:52;4.56;95.64
70271;SHT31;57680;54.292;18.598;2023-01-08T08:25:18;4.54;95.52
70271;SHT31;57680;54.292;18.598;2023-01-08T08:27:44;4.53;95.84
70271;SHT31;57680;54.292;18.598;2023-01-08T08:30:10;4.53;95.79
70271;SHT31;57680;54.292;18.598;2023-01-08T08:32:36;4.59;95.54
70271;SHT31;57680;54.292;18.598;2023-01-08T08:35:03;4.60;95.32
70271;SHT31;57680;54.292;18.598;2023-01-08T08:37:29;4.59;95.27
70271;SHT31;57680;54.292;18.598;2023-01-08T08:39:54;4.57;95.19
70271;SHT31;57680;54.292;18.598;2023-01-08T08:42:20;4.54;95.24
70271;SHT31;57680;54.292;18.598;2023-01-08T08:44:45;4.60;95.41
70271;SHT31;57680;54.292;18.598;2023-01-08T08:47:11;4.56;95.16
70271;SHT31;57680;54.292;18.598;2023-01-08T08:49:36;4.62;95.05
70271;SHT31;57680;54.292;18.598;2023-01-08T08:52:03;4.64;94.93
70271;SHT31;57680;54.292;18.598;2023-01-08T08:54:29;4.63;94.98
70271;SHT31;57680;54.292;18.598;2023-01-08T08:56:54;4.64;94.92
70271;SHT31;57680;54.292;18.598;2023-01-08T08:59:20;4.67;95.09
70271;SHT31;57680;54.292;18.598;2023-01-08T09:01:45;4.69;94.85
70271;SHT31;57680;54.292;18.598;2023-01-08T09:04:11;4.70;94.89
70271;SHT31;57680;54.292;18.598;2023-01-08T09:06:36;4.72;94.69
70271;SHT31;57680;54.292;18.598;2023-01-08T09:09:02;4.70;94.66
70271;SHT31;57680;54.292;18.598;2023-01-08T09:11:28;4.72;94.77
70271;SHT31;57680;54.292;18.598;2023-01-08T09:13:53;4.74;94.62
70271;SHT31;57680;54.292;18.598;2023-01-08T09:16:19;4.72;94.55
70271;SHT31;57680;54.292;18.598;2023-01-08T09:18:44;4.67;94.87
70271;SHT31;57680;54.292;18.598;2023-01-08T09:21:11;4.72;94.96
70271;SHT31;57680;54.292;18.598;2023-01-08T09:23:36;4.74;94.80
70271;SHT31;57680;54.292;18.598;2023-01-08T09:26:04;4.73;94.70
70271;SHT31;57680;54.292;18.598;2023-01-08T09:28:30;4.76;94.72
70271;SHT31;57680;54.292;18.598;2023-01-08T09:31:00;4.74;94.81
70271;SHT31;57680;54.292;18.598;2023-01-08T09:33:27;4.69;94.77
70271;SHT31;57680;54.292;18.598;2023-01-08T09:35:52;4.72;95.21
70271;SHT31;57680;54.292;18.598;2023-01-08T09:38:17;4.70;94.77
70271;SHT31;57680;54.292;18.598;2023-01-08T09:40:55;4.73;94.77
70271;SHT31;57680;54.292;18.598;2023-01-08T09:43:23;4.72;94.83
70271;SHT31;57680;54.292;18.598;2023-01-08T09:45:59;4.70;94.88
70271;SHT31;57680;54.292;18.598;2023-01-08T09:48:37;4.70;95.09
70271;SHT31;57680;54.292;18.598;2023-01-08T09:51:06;4.72;95.05
70271;SHT31;57680;54.292;18.598;2023-01-08T09:53:33;4.72;94.91
70271;SHT31;57680;54.292;18.598;2023-01-08T09:56:04;4.74;94.92
70271;SHT31;57680;54.292;18.598;2023-01-08T09:58:38;4.79;94.86
70271;SHT31;57680;54.292;18.598;2023-01-08T10:01:04;4.79;94.72
70271;SHT31;57680;54.292;18.598;2023-01-08T10:03:38;4.80;94.78
70271;SHT31;57680;54.292;18.598;2023-01-08T10:06:10;4.80;94.81
70271;SHT31;57680;54.292;18.598;2023-01-08T10:08:36;4.81;94.64
70271;SHT31;57680;54.292;18.598;2023-01-08T10:11:02;4.80;94.69
70271;SHT31;57680;54.292;18.598;2023-01-08T10:13:28;4.81;94.72
70271;SHT31;57680;54.292;18.598;2023-01-08T10:15:54;4.80;94.67
70271;SHT31;57680;54.292;18.598;2023-01-08T10:18:22;4.80;94.77
70271;SHT31;57680;54.292;18.598;2023-01-08T10:20:49;4.81;94.68
70271;SHT31;57680;54.292;18.598;2023-01-08T10:23:17;4.80;94.60
70271;SHT31;57680;54.292;18.598;2023-01-08T10:26:01;4.81;94.49
70271;SHT31;57680;54.292;18.598;2023-01-08T10:28:32;4.81;94.67
70271;SHT31;57680;54.292;18.598;2023-01-08T10:31:08;4.81;94.52
70271;SHT31;57680;54.292;18.598;2023-01-08T10:33:41;4.76;94.72
70271;SHT31;57680;54.292;18.598;2023-01-08T10:36:10;4.76;94.72
70271;SHT31;57680;54.292;18.598;2023-01-08T10:38:49;4.76;95.04
70271;SHT31;57680;54.292;18.598;2023-01-08T10:41:16;4.79;94.91
70271;SHT31;57680;54.292;18.598;2023-01-08T10:46:35;4.74;94.85
70271;SHT31;57680;54.292;18.598;2023-01-08T10:49:03;4.73;94.98
70271;SHT31;57680;54.292;18.598;2023-01-08T10:51:30;4.73;94.78
70271;SHT31;57680;54.292;18.598;2023-01-08T10:54:14;4.76;94.97
70271;SHT31;57680;54.292;18.598;2023-01-08T10:56:42;4.77;94.94
70271;SHT31;57680;54.292;18.598;2023-01-08T10:59:21;4.76;94.91
70271;SHT31;57680;54.292;18.598;2023-01-08T11:01:48;4.73;95.05
70271;SHT31;57680;54.292;18.598;2023-01-08T11:04:26;4.73;95.04
70271;SHT31;57680;54.292;18.598;2023-01-08T11:06:53;4.70;95.18
70271;SHT31;57680;54.292;18.598;2023-01-08T11:09:27;4.72;95.12
70271;SHT31;57680;54.292;18.598;2023-01-08T11:11:54;4.76;95.10
70271;SHT31;57680;54.292;18.598;2023-01-08T11:14:24;4.74;95.26
70271;SHT31;57680;54.292;18.598;2023-01-08T11:16:53;4.79;95.10
70271;SHT31;57680;54.292;18.598;2023-01-08T11:19:26;4.73;95.16
70271;SHT31;57680;54.292;18.598;2023-01-08T11:22:03;4.79;95.43
70271;SHT31;57680;54.292;18.598;2023-01-08T11:24:33;4.77;95.26
70271;SHT31;57680;54.292;18.598;2023-01-08T11:34:57;4.80;95.13
70271;SHT31;57680;54.292;18.598;2023-01-08T11:37:30;4.81;95.05
70271;SHT31;57680;54.292;18.598;2023-01-08T11:39:57;4.80;95.11
70271;SHT31;57680;54.292;18.598;2023-01-08T11:42:43;4.81;94.96
70271;SHT31;57680;54.292;18.598;2023-01-08T11:45:50;4.83;95.12
70271;SHT31;57680;54.292;18.598;2023-01-08T11:53:58;4.87;94.79
70271;SHT31;57680;54.292;18.598;2023-01-08T11:59:24;4.81;95.08
70271;SHT31;57680;54.292;18.598;2023-01-08T12:07:21;4.90;94.85
70271;SHT31;57680;54.292;18.598;2023-01-08T12:10:14;4.88;94.70
70271;SHT31;57680;54.292;18.598;2023-01-08T12:27:14;4.83;95.12
70271;SHT31;57680;54.292;18.598;2023-01-08T12:32:32;4.87;94.83
70271;SHT31;57680;54.292;18.598;2023-01-08T12:35:17;4.88;94.78
70271;SHT31;57680;54.292;18.598;2023-01-08T12:40:25;4.90;94.94
70271;SHT31;57680;54.292;18.598;2023-01-08T12:42:51;4.91;94.91
70271;SHT31;57680;54.292;18.598;2023-01-08T12:47:51;4.90;94.91
70271;SHT31;57680;54.292;18.598;2023-01-08T13:01:57;4.87;94.92
70271;SHT31;57680;54.292;18.598;2023-01-08T13:04:24;4.87;94.91
70271;SHT31;57680;54.292;18.598;2023-01-08T13:06:52;4.87;94.92
70271;SHT31;57680;54.292;18.598;2023-01-08T13:09:23;4.84;95.02
70271;SHT31;57680;54.292;18.598;2023-01-08T13:11:55;4.84;95.05
70271;SHT31;57680;54.292;18.598;2023-01-08T13:14:22;4.88;95.09
70271;SHT31;57680;54.292;18.598;2023-01-08T13:17:03;4.85;95.07
70271;SHT31;57680;54.292;18.598;2023-01-08T13:19:38;4.87;95.14
70271;SHT31;57680;54.292;18.598;2023-01-08T13:22:27;4.91;95.21
70271;SHT31;57680;54.292;18.598;2023-01-08T13:27:38;4.95;95.08
70271;SHT31;57680;54.292;18.598;2023-01-08T13:33:40;4.97;95.18
70271;SHT31;57680;54.292;18.598;2023-01-08T13:36:24;4.98;95.03
70271;SHT31;57680;54.292;18.598;2023-01-08T13:41:34;4.98;94.94
70271;SHT31;57680;54.292;18.598;2023-01-08T13:44:05;4.97;95.01
70271;SHT31;57680;54.292;18.598;2023-01-08T13:46:33;4.98;94.93
70271;SHT31;57680;54.292;18.598;2023-01-08T13:49:05;5.00;94.84
70271;SHT31;57680;54.292;18.598;2023-01-08T13:51:43;5.00;94.87
70271;SHT31;57680;54.292;18.598;2023-01-08T13:54:17;4.98;94.84
70271;SHT31;57680;54.292;18.598;2023-01-08T13:56:46;5.01;94.99
70271;SHT31;57680;54.292;18.598;2023-01-08T13:59:30;5.04;94.92
70271;SHT31;57680;54.292;18.598;2023-01-08T14:01:58;5.04;95.12
70271;SHT31;57680;54.292;18.598;2023-01-08T14:04:26;5.05;95.04
70271;SHT31;57680;54.292;18.598;2023-01-08T14:06:51;5.05;94.95
70271;SHT31;57680;54.292;18.598;2023-01-08T14:09:24;5.07;95.09
70271;SHT31;57680;54.292;18.598;2023-01-08T14:11:53;5.05;95.07
70271;SHT31;57680;54.292;18.598;2023-01-08T14:14:21;5.08;95.10
70271;SHT31;57680;54.292;18.598;2023-01-08T14:16:49;5.12;95.07
70271;SHT31;57680;54.292;18.598;2023-01-08T14:19:24;5.14;94.67
70271;SHT31;57680;54.292;18.598;2023-01-08T14:21:57;5.11;94.76
70271;SHT31;57680;54.292;18.598;2023-01-08T14:24:24;5.07;94.96
70271;SHT31;57680;54.292;18.598;2023-01-08T14:26:52;5.08;95.00
70271;SHT31;57680;54.292;18.598;2023-01-08T14:29:23;5.07;95.08
70271;SHT31;57680;54.292;18.598;2023-01-08T14:31:51;5.05;95.19
70271;SHT31;57680;54.292;18.598;2023-01-08T14:34:21;5.08;95.11
70271;SHT31;57680;54.292;18.598;2023-01-08T14:36:51;5.05;95.15
70271;SHT31;57680;54.292;18.598;2023-01-08T14:41:49;5.04;95.26
70271;SHT31;57680;54.292;18.598;2023-01-08T14:44:33;5.05;95.18
70271;SHT31;57680;54.292;18.598;2023-01-08T14:46:59;5.08;95.38
70271;SHT31;57680;54.292;18.598;2023-01-08T14:49:27;5.08;95.10
70271;SHT31;57680;54.292;18.598;2023-01-08T14:51:55;5.08;95.32
70271;SHT31;57680;54.292;18.598;2023-01-08T14:54:33;5.11;95.19
70271;SHT31;57680;54.292;18.598;2023-01-08T14:57:01;5.10;95.02
70271;SHT31;57680;54.292;18.598;2023-01-08T14:59:31;5.14;95.10
70271;SHT31;57680;54.292;18.598;2023-01-08T15:02:00;5.12;94.97
70271;SHT31;57680;54.292;18.598;2023-01-08T15:04:27;5.12;95.10
70271;SHT31;57680;54.292;18.598;2023-01-08T15:07:08;5.15;95.28
70271;SHT31;57680;54.292;18.598;2023-01-08T15:09:40;5.18;95.01
70271;SHT31;57680;54.292;18.598;2023-01-08T15:12:20;5.18;94.82
70271;SHT31;57680;54.292;18.598;2023-01-08T15:14:46;5.20;94.82
70271;SHT31;57680;54.292;18.598;2023-01-08T15:17:17;5.17;94.68
70271;SHT31;57680;54.292;18.598;2023-01-08T15:19:47;5.20;94.92
70271;SHT31;57680;54.292;18.598;2023-01-08T15:22:18;5.22;94.65
70271;SHT31;57680;54.292;18.598;2023-01-08T15:25:06;5.22;94.68
70271;SHT31;57680;54.292;18.598;2023-01-08T15:27:31;5.25;94.54
70271;SHT31;57680;54.292;18.598;2023-01-08T15:30:01;5.25;94.54
70271;SHT31;57680;54.292;18.598;2023-01-08T15:32:33;5.24;94.43
70271;SHT31;57680;54.292;18.598;2023-01-08T15:35:01;5.31;94.18
70271;SHT31;57680;54.292;18.598;2023-01-08T15:37:31;5.30;94.12
70271;SHT31;57680;54.292;18.598;2023-01-08T15:39:56;5.27;94.31
70271;SHT31;57680;54.292;18.598;2023-01-08T15:42:29;5.25;94.16
70271;SHT31;57680;54.292;18.598;2023-01-08T15:47:41;5.20;94.45
70271;SHT31;57680;54.292;18.598;2023-01-08T15:50:07;5.20;94.59
70271;SHT31;57680;54.292;18.598;2023-01-08T15:52:34;5.21;94.48
70271;SHT31;57680;54.292;18.598;2023-01-08T15:55:00;5.21;94.53
70271;SHT31;57680;54.292;18.598;2023-01-08T15:57:27;5.22;94.44
70271;SHT31;57680;54.292;18.598;2023-01-08T15:59:55;5.24;94.58
70271;SHT31;57680;54.292;18.598;2023-01-08T16:02:21;5.24;94.50
70271;SHT31;57680;54.292;18.598;2023-01-08T16:04:55;5.24;94.21
70271;SHT31;57680;54.292;18.598;2023-01-08T16:07:21;5.24;94.33
70271;SHT31;57680;54.292;18.598;2023-01-08T16:09:47;5.25;94.36
70271;SHT31;57680;54.292;18.598;2023-01-08T16:12:13;5.25;94.34
70271;SHT31;57680;54.292;18.598;2023-01-08T16:14:39;5.24;94.17
70271;SHT31;57680;54.292;18.598;2023-01-08T16:17:05;5.28;94.22
70271;SHT31;57680;54.292;18.598;2023-01-08T16:19:30;5.25;94.17
70271;SHT31;57680;54.292;18.598;2023-01-08T16:21:57;5.22;94.16
70271;SHT31;57680;54.292;18.598;2023-01-08T16:24:22;5.25;94.15
70271;SHT31;57680;54.292;18.598;2023-01-08T16:26:48;5.22;94.20
70271;SHT31;57680;54.292;18.598;2023-01-08T16:29:14;5.21;94.16
70271;SHT31;57680;54.292;18.598;2023-01-08T16:31:46;5.30;94.38
70271;SHT31;57680;54.292;18.598;2023-01-08T16:34:13;5.25;93.97
70271;SHT31;57680;54.292;18.598;2023-01-08T16:36:39;5.27;93.97
70271;SHT31;57680;54.292;18.598;2023-01-08T16:39:05;5.27;94.21
70271;SHT31;57680;54.292;18.598;2023-01-08T16:41:31;5.24;94.18
70271;SHT31;57680;54.292;18.598;2023-01-08T16:43:57;5.24;94.14
70271;SHT31;57680;54.292;18.598;2023-01-08T16:46:22;5.21;94.22
70271;SHT31;57680;54.292;18.598;2023-01-08T16:48:48;5.20;94.41
70271;SHT31;57680;54.292;18.598;2023-01-08T16:51:14;5.22;94.17
70271;SHT31;57680;54.292;18.598;2023-01-08T16:53:40;5.20;94.35
70271;SHT31;57680;54.292;18.598;2023-01-08T16:56:06;5.21;94.32
70271;SHT31;57680;54.292;18.598;2023-01-08T16:58:32;5.22;94.29
70271;SHT31;57680;54.292;18.598;2023-01-08T17:01:00;5.24;94.14
70271;SHT31;57680;54.292;18.598;2023-01-08T17:03:25;5.22;94.25
70271;SHT31;57680;54.292;18.598;2023-01-08T17:05:51;5.20;94.27
70271;SHT31;57680;54.292;18.598;2023-01-08T17:08:17;5.18;94.15
70271;SHT31;57680;54.292;18.598;2023-01-08T17:10:44;5.15;94.40
70271;SHT31;57680;54.292;18.598;2023-01-08T17:13:10;5.20;94.34
70271;SHT31;57680;54.292;18.598;2023-01-08T17:15:37;5.25;94.32
70271;SHT31;57680;54.292;18.598;2023-01-08T17:18:03;5.27;94.14
70271;SHT31;57680;54.292;18.598;2023-01-08T17:20:28;5.22;94.21